createdAt,value
2023-01-18T00:01:37.508Z,17.50
2023-01-18T00:04:06.761Z,17.50
2023-01-18T00:06:35.937Z,17.50
2023-01-18T00:09:05.199Z,17.50
2023-01-18T00:11:34.472Z,17.50
2023-01-18T00:14:03.959Z,17.50
2023-01-18T00:16:33.203Z,17.50
2023-01-18T00:19:02.867Z,17.50
2023-01-18T00:21:32.021Z,17.50
2023-01-18T00:24:01.252Z,17.50
2023-01-18T00:26:30.451Z,17.50
2023-01-18T00:29:02.303Z,17.50
2023-01-18T00:31:31.894Z,17.50
2023-01-18T00:34:01.265Z,17.60
2023-01-18T00:36:32.913Z,17.60
2023-01-18T00:39:02.633Z,17.60
2023-01-18T00:41:34.777Z,17.60
2023-01-18T00:44:04.057Z,17.60
2023-01-18T00:46:36.500Z,17.60
2023-01-18T00:49:05.857Z,17.70
2023-01-18T00:51:35.048Z,17.70
2023-01-18T00:54:04.343Z,17.80
2023-01-18T00:56:33.543Z,17.80
2023-01-18T00:59:05.760Z,17.80
2023-01-18T01:01:35.026Z,17.90
2023-01-18T01:04:22.417Z,17.90
2023-01-18T01:06:52.712Z,18.00
2023-01-18T01:09:31.096Z,18.10
2023-01-18T01:12:19.277Z,18.10
2023-01-18T01:15:10.184Z,18.20
2023-01-18T01:17:58.863Z,18.30
2023-01-18T01:20:46.263Z,18.30
2023-01-18T01:23:40.809Z,18.40
2023-01-18T01:26:12.725Z,18.50
2023-01-18T01:28:53.028Z,18.60
2023-01-18T01:31:22.506Z,18.70
2023-01-18T01:33:53.346Z,18.70
2023-01-18T01:36:26.935Z,18.80
2023-01-18T01:38:57.476Z,18.90
2023-01-18T01:41:38.951Z,19.00
2023-01-18T01:44:25.430Z,19.10
2023-01-18T01:47:07.719Z,19.20
2023-01-18T01:49:49.238Z,19.30
2023-01-18T01:52:37.987Z,19.40
2023-01-18T01:55:28.684Z,19.50
2023-01-18T01:58:17.062Z,19.60
2023-01-18T02:00:47.337Z,19.70
2023-01-18T02:03:19.483Z,19.80
2023-01-18T02:05:56.871Z,19.90
2023-01-18T02:08:28.955Z,20.00
2023-01-18T02:10:58.156Z,20.10
2023-01-18T02:13:28.505Z,20.20
2023-01-18T02:16:28.913Z,20.20
2023-01-18T02:19:25.428Z,20.20
2023-01-18T02:22:15.936Z,20.30
2023-01-18T02:25:02.614Z,20.30
2023-01-18T02:27:47.128Z,20.40
2023-01-18T02:30:33.474Z,20.40
2023-01-18T02:33:16.895Z,20.50
2023-01-18T02:35:59.182Z,20.60
2023-01-18T02:38:42.872Z,20.70
2023-01-18T02:42:03.693Z,20.70
2023-01-18T02:45:05.530Z,20.80
2023-01-18T02:47:36.546Z,20.80
2023-01-18T02:50:06.444Z,20.90
2023-01-18T02:52:56.282Z,20.90
2023-01-18T02:55:37.605Z,21.00
2023-01-18T02:58:25.083Z,21.00
2023-01-18T03:01:06.324Z,21.10
2023-01-18T03:03:37.073Z,21.20
2023-01-18T03:06:10.221Z,21.30
2023-01-18T03:08:39.929Z,21.40
2023-01-18T03:11:54.922Z,21.50
2023-01-18T03:15:10.929Z,21.60
2023-01-18T03:17:51.314Z,21.70
2023-01-18T03:20:40.094Z,21.80
2023-01-18T03:23:41.995Z,21.90
2023-01-18T03:26:18.356Z,22.00
2023-01-18T03:29:15.776Z,22.10
2023-01-18T03:32:20.271Z,22.10
2023-01-18T03:35:28.032Z,22.20
2023-01-18T03:38:00.447Z,22.30
2023-01-18T03:40:32.485Z,22.40
2023-01-18T03:43:18.739Z,22.50
2023-01-18T03:45:51.112Z,22.60
2023-01-18T03:48:20.556Z,22.60
2023-01-18T03:51:32.582Z,22.70
2023-01-18T03:54:56.381Z,22.90
2023-01-18T03:57:38.034Z,23.00
2023-01-18T04:00:10.014Z,23.20
2023-01-18T04:02:39.919Z,23.30
2023-01-18T04:05:09.830Z,23.40
2023-01-18T04:07:39.497Z,23.40
2023-01-18T04:10:09.201Z,23.50
2023-01-18T04:12:38.907Z,23.60
2023-01-18T04:15:08.893Z,23.60
2023-01-18T04:17:38.137Z,23.70
2023-01-18T04:20:08.697Z,23.80
2023-01-18T04:22:37.878Z,23.80
2023-01-18T04:25:07.639Z,23.90
2023-01-18T04:27:36.965Z,24.00
2023-01-18T04:30:07.262Z,24.10
2023-01-18T04:32:36.545Z,24.10
2023-01-18T04:35:06.311Z,24.20
2023-01-18T04:37:35.559Z,24.20
2023-01-18T04:40:05.507Z,24.30
2023-01-18T04:42:35.042Z,24.40
2023-01-18T04:45:04.302Z,24.60
2023-01-18T04:47:33.621Z,24.70
2023-01-18T04:50:03.057Z,24.80
2023-01-18T04:52:34.259Z,24.90
2023-01-18T04:55:03.458Z,25.00
2023-01-18T04:57:32.746Z,25.10
2023-01-18T05:00:03.167Z,25.20
2023-01-18T05:02:32.409Z,25.30
2023-01-18T05:05:01.699Z,25.50
2023-01-18T05:07:32.276Z,25.60
2023-01-18T05:10:04.774Z,25.70
2023-01-18T05:12:33.974Z,25.90
2023-01-18T05:15:03.087Z,26.00
2023-01-18T05:17:35.499Z,26.10
2023-01-18T05:20:08.673Z,26.20
2023-01-18T05:22:38.191Z,26.40
2023-01-18T05:25:08.825Z,26.60
2023-01-18T05:27:38.390Z,26.70
2023-01-18T05:30:08.401Z,26.80
2023-01-18T05:32:37.763Z,27.00
2023-01-18T05:35:08.184Z,27.10
2023-01-18T05:37:37.358Z,27.20
2023-01-18T05:40:07.287Z,27.30
2023-01-18T05:42:36.433Z,27.40
2023-01-18T05:45:06.107Z,27.50
2023-01-18T05:47:35.191Z,27.50
2023-01-18T05:50:04.385Z,27.70
2023-01-18T05:52:33.507Z,27.80
2023-01-18T05:55:02.616Z,27.80
2023-01-18T05:57:32.447Z,28.00
2023-01-18T06:00:05.056Z,28.00
2023-01-18T06:02:34.188Z,28.00
2023-01-18T06:05:03.381Z,28.00
2023-01-18T06:07:32.573Z,28.00
2023-01-18T06:10:02.100Z,28.00
2023-01-18T06:12:31.333Z,28.10
2023-01-18T06:15:01.563Z,28.00
2023-01-18T06:17:32.359Z,28.00
2023-01-18T06:20:01.806Z,28.10
2023-01-18T06:22:31.834Z,28.10
2023-01-18T06:25:01.176Z,28.20
2023-01-18T06:27:30.403Z,28.30
2023-01-18T06:29:59.642Z,28.30
2023-01-18T06:32:28.873Z,28.30
2023-01-18T06:34:58.072Z,28.30
2023-01-18T06:37:27.480Z,28.30
2023-01-18T06:39:56.779Z,28.30
2023-01-18T06:42:26.165Z,28.30
2023-01-18T06:44:55.415Z,28.30
2023-01-18T06:47:24.720Z,28.30
2023-01-18T06:49:54.113Z,28.40
2023-01-18T06:52:23.810Z,28.50
2023-01-18T06:54:53.065Z,28.50
2023-01-18T06:57:22.305Z,28.60
2023-01-18T06:59:54.142Z,28.70
2023-01-18T07:02:23.522Z,28.70
2023-01-18T07:04:52.797Z,28.80
2023-01-18T07:07:22.040Z,28.80
2023-01-18T07:09:51.664Z,28.80
2023-01-18T07:12:21.327Z,28.80
2023-01-18T07:14:50.633Z,28.90
2023-01-18T07:17:19.969Z,28.90
2023-01-18T07:19:49.233Z,29.00
2023-01-18T07:22:18.531Z,29.10
2023-01-18T07:24:47.782Z,29.10
2023-01-18T07:27:17.017Z,29.10
2023-01-18T07:29:47.170Z,29.10
2023-01-18T07:32:18.237Z,29.10
2023-01-18T07:34:47.461Z,29.10
2023-01-18T07:37:16.738Z,29.10
2023-01-18T07:39:45.987Z,29.10
2023-01-18T07:42:15.441Z,29.10
2023-01-18T07:44:44.693Z,29.20
2023-01-18T07:47:13.985Z,29.20
2023-01-18T07:49:43.428Z,29.30
2023-01-18T07:52:13.573Z,29.40
2023-01-18T07:54:42.820Z,29.40
2023-01-18T07:57:12.008Z,29.50
2023-01-18T07:59:41.368Z,29.50
2023-01-18T08:02:14.504Z,29.40
2023-01-18T08:04:44.211Z,29.40
2023-01-18T08:07:13.447Z,29.40
2023-01-18T08:09:43.541Z,29.40
2023-01-18T08:12:19.106Z,29.50
2023-01-18T08:14:49.041Z,29.50
2023-01-18T08:17:18.153Z,29.50
2023-01-18T08:19:47.417Z,29.50
2023-01-18T08:22:16.555Z,29.40
2023-01-18T08:24:45.719Z,29.40
2023-01-18T08:27:15.128Z,29.40
2023-01-18T08:29:44.346Z,29.40
2023-01-18T08:32:13.683Z,29.40
2023-01-18T08:34:42.863Z,29.50
2023-01-18T08:37:12.784Z,29.50
2023-01-18T08:39:41.908Z,29.60
2023-01-18T08:42:14.060Z,29.60
2023-01-18T08:44:43.355Z,29.60
2023-01-18T08:47:13.042Z,29.70
2023-01-18T08:49:42.125Z,29.70
2023-01-18T08:52:11.905Z,29.70
2023-01-18T08:54:41.095Z,29.70
2023-01-18T08:57:10.384Z,29.80
2023-01-18T08:59:39.575Z,29.80
2023-01-18T09:02:10.862Z,29.80
2023-01-18T09:04:40.126Z,29.80
2023-01-18T09:07:09.954Z,29.80
2023-01-18T09:09:39.726Z,29.70
2023-01-18T09:12:09.232Z,29.70
2023-01-18T09:14:38.491Z,29.60
2023-01-18T09:17:07.841Z,29.40
2023-01-18T09:19:37.126Z,29.40
2023-01-18T09:22:07.384Z,29.30
2023-01-18T09:24:38.151Z,29.30
2023-01-18T09:27:07.699Z,29.40
2023-01-18T09:29:36.976Z,29.40
2023-01-18T09:32:09.053Z,29.40
2023-01-18T09:34:38.771Z,29.40
2023-01-18T09:37:07.932Z,29.40
2023-01-18T09:39:50.840Z,29.40
2023-01-18T09:42:30.424Z,29.40
2023-01-18T09:45:02.637Z,29.30
2023-01-18T09:48:01.392Z,29.30
2023-01-18T09:50:32.138Z,29.20
2023-01-18T09:53:46.159Z,29.10
2023-01-18T09:56:28.847Z,28.90
2023-01-18T09:59:12.780Z,28.80
2023-01-18T10:01:42.937Z,28.80
2023-01-18T10:04:26.480Z,28.70
2023-01-18T10:07:15.955Z,28.70
2023-01-18T10:09:54.231Z,28.60
2023-01-18T10:12:27.163Z,28.50
2023-01-18T10:15:28.970Z,28.50
2023-01-18T10:18:01.614Z,28.40
2023-01-18T10:20:45.633Z,28.30
2023-01-18T10:23:47.013Z,28.20
2023-01-18T10:26:33.380Z,28.20
2023-01-18T10:29:22.800Z,28.10
2023-01-18T10:32:16.158Z,28.00
2023-01-18T10:34:51.243Z,27.90
2023-01-18T10:37:39.891Z,27.80
2023-01-18T10:40:11.941Z,27.70
2023-01-18T10:42:48.093Z,27.50
2023-01-18T10:45:31.049Z,27.50
2023-01-18T10:48:33.711Z,27.30
2023-01-18T10:51:09.621Z,27.20
2023-01-18T10:53:41.125Z,27.10
2023-01-18T10:56:19.455Z,26.90
2023-01-18T10:58:54.152Z,26.80
2023-01-18T11:01:54.007Z,26.70
2023-01-18T11:04:35.125Z,26.60
2023-01-18T11:07:06.772Z,26.50
2023-01-18T11:09:56.641Z,26.40
2023-01-18T11:12:38.037Z,26.30
2023-01-18T11:15:16.165Z,26.20
2023-01-18T11:18:01.898Z,26.10
2023-01-18T11:20:47.155Z,26.00
2023-01-18T11:23:43.652Z,26.00
2023-01-18T11:26:20.203Z,25.80
2023-01-18T11:29:15.590Z,25.80
2023-01-18T11:31:50.999Z,25.70
2023-01-18T11:34:39.247Z,25.60
2023-01-18T11:37:39.778Z,25.50
2023-01-18T11:40:36.516Z,25.40
2023-01-18T11:43:28.914Z,25.40
2023-01-18T11:46:17.999Z,25.30
2023-01-18T11:49:09.156Z,25.30
2023-01-18T11:52:12.858Z,25.20
2023-01-18T11:54:54.663Z,25.10
2023-01-18T11:57:23.936Z,25.10
2023-01-18T11:59:53.106Z,25.00
2023-01-18T12:02:57.209Z,25.00
2023-01-18T12:05:55.625Z,24.90
2023-01-18T12:09:01.774Z,24.80
2023-01-18T12:11:48.255Z,24.80
2023-01-18T12:14:38.392Z,24.70
2023-01-18T12:17:25.889Z,24.70
2023-01-18T12:20:36.568Z,24.60
2023-01-18T12:23:14.223Z,24.60
2023-01-18T12:26:17.607Z,24.60
2023-01-18T12:29:32.925Z,24.50
2023-01-18T12:32:44.617Z,24.50
2023-01-18T12:36:07.880Z,24.40
2023-01-18T12:38:48.315Z,24.40
2023-01-18T12:41:58.409Z,24.30
2023-01-18T12:45:19.440Z,24.20
2023-01-18T12:48:09.983Z,24.10
2023-01-18T12:50:43.488Z,24.00
2023-01-18T12:53:48.259Z,24.00
2023-01-18T12:56:48.820Z,23.90
2023-01-18T12:59:25.460Z,23.90
2023-01-18T13:02:34.140Z,23.80
2023-01-18T13:05:18.888Z,23.70
2023-01-18T13:08:10.167Z,23.70
2023-01-18T13:10:40.111Z,23.60
2023-01-18T13:13:18.552Z,23.60
2023-01-18T13:16:15.047Z,23.60
2023-01-18T13:19:12.191Z,23.50
2023-01-18T13:22:01.305Z,23.50
2023-01-18T13:24:45.778Z,23.40
2023-01-18T13:27:18.832Z,23.40
2023-01-18T13:29:48.744Z,23.40
2023-01-18T13:32:37.327Z,23.40
2023-01-18T13:35:29.886Z,23.40
2023-01-18T13:38:12.603Z,23.30
2023-01-18T13:40:54.007Z,23.30
2023-01-18T13:43:38.236Z,23.30
2023-01-18T13:46:10.812Z,23.30
2023-01-18T13:48:59.751Z,23.30
2023-01-18T13:51:41.307Z,23.20
2023-01-18T13:54:40.633Z,23.20
2023-01-18T13:57:15.934Z,23.20
2023-01-18T13:59:53.304Z,23.20
2023-01-18T14:02:46.338Z,23.20
2023-01-18T14:05:29.532Z,23.10
2023-01-18T14:08:04.221Z,23.10
2023-01-18T14:10:49.868Z,23.10
2023-01-18T14:13:39.774Z,23.00
2023-01-18T14:16:18.708Z,23.00
2023-01-18T14:19:19.773Z,23.00
2023-01-18T14:22:14.215Z,22.90
2023-01-18T14:25:01.771Z,22.90
2023-01-18T14:27:44.404Z,22.90
2023-01-18T14:30:32.897Z,22.80
2023-01-18T14:33:25.176Z,22.80
2023-01-18T14:36:04.796Z,22.80
2023-01-18T14:38:34.087Z,22.80
2023-01-18T14:41:12.992Z,22.70
2023-01-18T14:43:49.544Z,22.70
2023-01-18T14:46:27.790Z,22.70
2023-01-18T14:49:23.756Z,22.60
2023-01-18T14:51:54.959Z,22.60
2023-01-18T14:54:30.811Z,22.60
2023-01-18T14:57:17.210Z,22.50
2023-01-18T15:00:04.705Z,22.50
2023-01-18T15:02:40.805Z,22.50
2023-01-18T15:05:19.051Z,22.50
2023-01-18T15:07:57.078Z,22.40
2023-01-18T15:10:29.270Z,22.40
2023-01-18T15:13:01.183Z,22.40
2023-01-18T15:15:43.191Z,22.30
2023-01-18T15:18:23.077Z,22.30
2023-01-18T15:21:31.453Z,22.30
2023-01-18T15:24:22.220Z,22.20
2023-01-18T15:26:58.138Z,22.10
2023-01-18T15:29:56.562Z,22.10
2023-01-18T15:32:35.801Z,22.10
2023-01-18T15:35:14.189Z,22.00
2023-01-18T15:37:58.818Z,21.90
2023-01-18T15:40:34.976Z,21.90
2023-01-18T15:43:19.543Z,21.90
2023-01-18T15:45:55.210Z,21.80
2023-01-18T15:48:39.702Z,21.80
2023-01-18T15:51:11.969Z,21.80
2023-01-18T15:53:53.200Z,21.70
2023-01-18T15:56:28.351Z,21.70
2023-01-18T15:59:05.892Z,21.60
2023-01-18T16:01:35.554Z,21.60
2023-01-18T16:04:24.712Z,21.50
2023-01-18T16:06:53.887Z,21.50
2023-01-18T16:09:35.481Z,21.40
2023-01-18T16:12:08.612Z,21.30
2023-01-18T16:14:41.295Z,21.30
2023-01-18T16:17:23.869Z,21.20
2023-01-18T16:20:00.697Z,21.20
2023-01-18T16:22:49.203Z,21.10
2023-01-18T16:25:22.028Z,21.10
2023-01-18T16:27:56.036Z,21.10
2023-01-18T16:30:50.428Z,21.10
2023-01-18T16:33:24.801Z,21.10
2023-01-18T16:35:56.859Z,21.00
2023-01-18T16:38:29.119Z,21.00
2023-01-18T16:41:01.160Z,21.00
2023-01-18T16:43:33.537Z,20.90
2023-01-18T16:46:05.432Z,20.80
2023-01-18T16:48:40.984Z,20.80
2023-01-18T16:51:19.583Z,20.70
2023-01-18T16:53:50.442Z,20.70
2023-01-18T16:56:19.880Z,20.60
2023-01-18T16:58:49.769Z,20.60
2023-01-18T17:01:19.072Z,20.50
2023-01-18T17:03:50.148Z,20.40
2023-01-18T17:06:23.492Z,20.40
2023-01-18T17:08:53.530Z,20.40
2023-01-18T17:11:25.201Z,20.30
2023-01-18T17:13:54.418Z,20.30
2023-01-18T17:16:23.927Z,20.30
2023-01-18T17:18:53.177Z,20.20
2023-01-18T17:21:22.442Z,20.20
2023-01-18T17:23:51.766Z,20.20
2023-01-18T17:26:26.804Z,20.10
2023-01-18T17:28:56.056Z,20.10
2023-01-18T17:31:28.270Z,20.00
2023-01-18T17:34:03.255Z,20.00
2023-01-18T17:36:32.534Z,19.90
2023-01-18T17:39:05.132Z,19.90
2023-01-18T17:41:34.827Z,19.80
2023-01-18T17:44:05.072Z,19.80
2023-01-18T17:46:39.955Z,19.70
2023-01-18T17:49:09.192Z,19.70
2023-01-18T17:51:39.247Z,19.70
2023-01-18T17:54:13.295Z,19.60
2023-01-18T17:56:49.427Z,19.60
2023-01-18T17:59:18.820Z,19.50
2023-01-18T18:01:48.186Z,19.50
2023-01-18T18:04:17.471Z,19.50
2023-01-18T18:06:54.144Z,19.50
2023-01-18T18:09:24.176Z,19.50
2023-01-18T18:11:59.375Z,19.40
2023-01-18T18:14:34.397Z,19.40
2023-01-18T18:17:08.433Z,19.40
2023-01-18T18:19:38.330Z,19.30
2023-01-18T18:22:07.644Z,19.30
2023-01-18T18:24:39.027Z,19.30
2023-01-18T18:27:08.430Z,19.20
2023-01-18T18:29:37.623Z,19.20
2023-01-18T18:32:08.024Z,19.20
2023-01-18T18:34:38.443Z,19.10
2023-01-18T18:37:08.237Z,19.10
2023-01-18T18:39:37.423Z,19.10
2023-01-18T18:42:06.748Z,19.00
2023-01-18T18:44:35.912Z,19.00
2023-01-18T18:47:06.817Z,19.00
2023-01-18T18:49:36.652Z,18.90
2023-01-18T18:52:06.163Z,18.90
2023-01-18T18:54:35.416Z,18.90
2023-01-18T18:57:04.673Z,18.90
2023-01-18T18:59:33.837Z,18.90
2023-01-18T19:02:03.078Z,18.90
2023-01-18T19:04:32.267Z,18.80
2023-01-18T19:07:01.532Z,18.80
2023-01-18T19:09:30.738Z,18.80
2023-01-18T19:12:00.196Z,18.70
2023-01-18T19:14:29.316Z,18.70
2023-01-18T19:16:59.118Z,18.60
2023-01-18T19:19:28.497Z,18.60
2023-01-18T19:21:57.604Z,18.60
2023-01-18T19:24:26.985Z,18.60
2023-01-18T19:26:56.143Z,18.50
2023-01-18T19:29:25.241Z,18.50
2023-01-18T19:31:55.591Z,18.50
2023-01-18T19:34:25.885Z,18.40
2023-01-18T19:36:55.040Z,18.50
2023-01-18T19:39:24.391Z,18.40
2023-01-18T19:41:53.743Z,18.40
2023-01-18T19:44:23.096Z,18.40
2023-01-18T19:46:52.232Z,18.40
2023-01-18T19:49:26.217Z,18.40
2023-01-18T19:51:56.671Z,18.40
2023-01-18T19:54:25.932Z,18.40
2023-01-18T19:56:55.042Z,18.30
2023-01-18T19:59:24.186Z,18.30
2023-01-18T20:01:53.678Z,18.30
2023-01-18T20:04:22.864Z,18.20
2023-01-18T20:06:52.568Z,18.20
2023-01-18T20:09:25.090Z,18.20
2023-01-18T20:12:02.582Z,18.20
2023-01-18T20:14:40.941Z,18.20
2023-01-18T20:17:17.341Z,18.10
2023-01-18T20:19:46.738Z,18.10
2023-01-18T20:22:15.865Z,18.10
2023-01-18T20:24:45.263Z,18.10
2023-01-18T20:27:16.707Z,18.10
2023-01-18T20:29:46.823Z,18.10
2023-01-18T20:32:17.614Z,18.20
2023-01-18T20:34:50.096Z,18.20
2023-01-18T20:37:19.512Z,18.20
2023-01-18T20:39:48.719Z,18.20
2023-01-18T20:42:19.018Z,18.20
2023-01-18T20:44:51.207Z,18.20
2023-01-18T20:47:20.507Z,18.20
2023-01-18T20:49:49.923Z,18.20
2023-01-18T20:52:19.011Z,18.20
2023-01-18T20:54:48.210Z,18.10
2023-01-18T20:57:19.599Z,18.20
2023-01-18T20:59:48.760Z,18.10
2023-01-18T21:02:17.991Z,18.10
2023-01-18T21:04:47.301Z,18.10
2023-01-18T21:07:16.466Z,18.10
2023-01-18T21:09:47.069Z,18.10
2023-01-18T21:12:16.539Z,18.10
2023-01-18T21:14:45.784Z,18.10
2023-01-18T21:17:15.222Z,18.10
2023-01-18T21:19:48.468Z,18.00
2023-01-18T21:22:17.899Z,18.00
2023-01-18T21:24:47.250Z,18.00
2023-01-18T21:27:17.869Z,18.00
2023-01-18T21:29:47.035Z,18.00
2023-01-18T21:32:16.270Z,18.00
2023-01-18T21:34:45.460Z,18.00
2023-01-18T21:37:14.586Z,18.00
2023-01-18T21:39:52.012Z,17.90
2023-01-18T21:42:39.622Z,17.90
2023-01-18T21:45:29.979Z,17.90
2023-01-18T21:48:00.787Z,17.90
2023-01-18T21:50:48.321Z,17.90
2023-01-18T21:53:38.005Z,17.90
2023-01-18T21:56:07.716Z,17.90
2023-01-18T21:58:54.806Z,17.90
2023-01-18T22:01:43.775Z,17.90
2023-01-18T22:04:34.296Z,17.80
2023-01-18T22:07:05.244Z,17.80
2023-01-18T22:09:36.042Z,17.80
2023-01-18T22:12:05.414Z,17.80
2023-01-18T22:14:34.638Z,17.70
2023-01-18T22:17:03.919Z,17.70
2023-01-18T22:19:33.204Z,17.70
2023-01-18T22:22:02.983Z,17.60
2023-01-18T22:24:32.114Z,17.60
2023-01-18T22:27:01.302Z,17.60
2023-01-18T22:29:30.395Z,17.50
2023-01-18T22:31:59.609Z,17.50
2023-01-18T22:34:29.213Z,17.40
2023-01-18T22:36:58.403Z,17.40
2023-01-18T22:39:27.800Z,17.40
2023-01-18T22:41:57.030Z,17.40
2023-01-18T22:44:26.206Z,17.30
2023-01-18T22:46:55.466Z,17.30
2023-01-18T22:49:24.616Z,17.30
2023-01-18T22:51:53.775Z,17.30
2023-01-18T22:54:23.958Z,17.30
2023-01-18T22:56:53.148Z,17.30
2023-01-18T22:59:22.335Z,17.30
2023-01-18T23:01:51.552Z,17.30
2023-01-18T23:04:21.492Z,17.30
2023-01-18T23:06:52.973Z,17.30
2023-01-18T23:09:22.720Z,17.30
2023-01-18T23:11:52.589Z,17.30
2023-01-18T23:14:39.975Z,17.30
2023-01-18T23:17:30.565Z,17.30
2023-01-18T23:19:59.930Z,17.30
2023-01-18T23:22:29.386Z,17.30
2023-01-18T23:24:58.591Z,17.30
2023-01-18T23:27:27.895Z,17.30
2023-01-18T23:30:00.259Z,17.30
2023-01-18T23:32:31.410Z,17.20
2023-01-18T23:35:01.703Z,17.30
2023-01-18T23:37:31.283Z,17.20
2023-01-18T23:40:18.861Z,17.20
2023-01-18T23:43:06.123Z,17.20
2023-01-18T23:45:53.411Z,17.20
2023-01-18T23:48:41.139Z,17.20
2023-01-18T23:51:28.559Z,17.20
2023-01-18T23:54:15.788Z,17.10
2023-01-18T23:56:47.838Z,17.10
2023-01-18T23:59:17.453Z,17.10
